Terminal Aerodrome Forecast
Issued by NWS Bismarck, ND

Home | Current Version | Previous Version | Text Only | Print | Product List | Glossary On
Versions: 1 2 3 4 5 6 7 8 9 10 11 12 13 14 15
254
FTUS43 KBIS 281122
TAFISN
TAF
KISN 281122Z 2812/2912 35008KT P6SM SKC
     FM282000 25006KT P6SM FEW080 SCT200
     FM282300 21008KT P6SM SCT080 BKN200
     FM290100 18007KT P6SM SCT070 BKN200=

USA.gov is the U.S. government's official web portal to all federal, state and local government web resources and services.